createdAt,value
2018-12-08T00:00:34.825Z,9.63
2018-12-08T00:03:02.350Z,14.97
2018-12-08T00:05:29.769Z,7.67
2018-12-08T00:07:57.175Z,10.87
2018-12-08T00:10:24.606Z,9.80
2018-12-08T00:12:52.165Z,11.17
2018-12-08T00:15:19.664Z,12.50
2018-12-08T00:17:47.094Z,12.30
2018-12-08T00:20:14.563Z,7.70
2018-12-08T00:22:41.974Z,9.37
2018-12-08T00:25:09.369Z,8.63
2018-12-08T00:27:36.832Z,8.47
2018-12-08T00:30:08.756Z,6.30
2018-12-08T00:32:36.178Z,6.23
2018-12-08T00:35:03.609Z,8.87
2018-12-08T00:37:30.990Z,12.87
2018-12-08T00:39:58.421Z,8.40
2018-12-08T00:42:25.851Z,9.03
2018-12-08T00:44:53.266Z,8.93
2018-12-08T00:47:20.691Z,12.70
2018-12-08T00:49:48.094Z,7.60
2018-12-08T00:52:15.510Z,6.13
2018-12-08T00:54:42.888Z,7.30
2018-12-08T00:57:10.284Z,5.67
2018-12-08T00:59:37.716Z,7.90
2018-12-08T01:02:05.277Z,12.43
2018-12-08T01:04:32.699Z,5.90
2018-12-08T01:07:00.080Z,15.23
2018-12-08T01:09:27.509Z,12.87
2018-12-08T01:11:54.945Z,12.03
2018-12-08T01:14:22.352Z,5.20
2018-12-08T01:16:49.770Z,8.77
2018-12-08T01:19:17.231Z,7.30
2018-12-08T01:21:44.669Z,10.63
2018-12-08T01:24:12.086Z,12.33
2018-12-08T01:26:39.498Z,11.27
2018-12-08T01:29:06.942Z,7.50
2018-12-08T01:31:34.405Z,9.03
2018-12-08T01:34:01.864Z,14.23
2018-12-08T01:36:29.293Z,10.77
2018-12-08T01:38:56.709Z,5.77
2018-12-08T01:41:24.150Z,6.53
2018-12-08T01:43:51.583Z,7.73
2018-12-08T01:46:18.982Z,7.57
2018-12-08T01:48:46.424Z,11.13
2018-12-08T01:51:13.902Z,14.87
2018-12-08T01:53:41.375Z,11.83
2018-12-08T01:56:08.819Z,3.37
2018-12-08T01:58:36.228Z,12.60
2018-12-08T02:01:03.739Z,17.30
2018-12-08T02:03:31.294Z,10.03
2018-12-08T02:05:58.748Z,9.73
2018-12-08T02:08:26.170Z,12.83
2018-12-08T02:10:53.592Z,11.77
2018-12-08T02:13:20.982Z,7.87
2018-12-08T02:15:48.400Z,14.97
2018-12-08T02:18:15.926Z,7.23
2018-12-08T02:20:43.397Z,14.63
2018-12-08T02:23:10.788Z,6.47
2018-12-08T02:25:38.221Z,7.43
2018-12-08T02:28:05.619Z,7.03
2018-12-08T02:30:33.018Z,9.77
2018-12-08T02:33:00.436Z,10.47
2018-12-08T02:35:27.822Z,4.67
2018-12-08T02:37:55.261Z,5.60
2018-12-08T02:40:22.659Z,7.20
2018-12-08T02:42:50.061Z,12.10
2018-12-08T02:45:17.556Z,11.13
2018-12-08T02:47:45.015Z,8.23
2018-12-08T02:50:12.538Z,6.10
2018-12-08T02:52:40.076Z,16.10
2018-12-08T02:55:07.513Z,7.77
2018-12-08T02:57:34.907Z,7.80
2018-12-08T03:00:02.396Z,11.90
2018-12-08T03:02:29.816Z,9.43
2018-12-08T03:04:57.220Z,9.73
2018-12-08T03:07:24.641Z,7.07
2018-12-08T03:09:52.058Z,8.03
2018-12-08T03:12:19.492Z,9.50
2018-12-08T03:14:46.914Z,14.03
2018-12-08T03:17:14.332Z,10.70
2018-12-08T03:19:42.034Z,8.17
2018-12-08T03:22:09.518Z,4.73
2018-12-08T03:24:36.942Z,8.13
2018-12-08T03:27:04.374Z,11.30
2018-12-08T03:29:32.209Z,5.57
2018-12-08T03:31:59.657Z,7.77
2018-12-08T03:34:27.075Z,9.03
2018-12-08T03:36:54.519Z,7.93
2018-12-08T03:39:21.960Z,10.43
2018-12-08T03:41:49.384Z,9.10
2018-12-08T03:44:16.780Z,9.50
2018-12-08T03:46:44.316Z,9.23
2018-12-08T03:49:11.716Z,16.27
2018-12-08T03:51:39.118Z,6.87
2018-12-08T03:54:06.516Z,6.87
2018-12-08T03:56:33.937Z,14.37
2018-12-08T03:59:01.355Z,13.33
2018-12-08T04:01:28.743Z,13.33
2018-12-08T04:03:56.177Z,10.63
2018-12-08T04:06:23.581Z,9.23
2018-12-08T04:08:50.980Z,6.13
2018-12-08T04:11:18.402Z,9.73
2018-12-08T04:13:45.941Z,11.67
2018-12-08T04:16:13.345Z,7.17
2018-12-08T04:18:40.858Z,15.03
2018-12-08T04:21:08.297Z,10.23
2018-12-08T04:23:35.692Z,14.00
2018-12-08T04:26:03.237Z,8.13
2018-12-08T04:28:30.653Z,6.93
2018-12-08T04:30:58.199Z,9.10
2018-12-08T04:33:25.665Z,8.43
2018-12-08T04:35:54.678Z,11.00
2018-12-08T04:38:22.327Z,9.77
2018-12-08T04:40:49.736Z,7.47
2018-12-08T04:43:17.171Z,11.10
2018-12-08T04:45:44.573Z,8.67
2018-12-08T04:48:11.998Z,10.23
2018-12-08T04:50:39.419Z,11.17
2018-12-08T04:53:06.822Z,12.27
2018-12-08T04:55:34.221Z,11.80
2018-12-08T04:58:01.646Z,4.47
2018-12-08T05:00:29.094Z,10.07
2018-12-08T05:02:56.512Z,9.00
2018-12-08T05:05:23.948Z,12.37
2018-12-08T05:07:51.351Z,9.83
2018-12-08T05:10:18.740Z,7.67
2018-12-08T05:12:46.154Z,6.33
2018-12-08T05:15:13.702Z,12.97
2018-12-08T05:17:41.306Z,11.03
2018-12-08T05:20:08.749Z,11.17
2018-12-08T05:22:36.157Z,4.77
2018-12-08T05:25:03.950Z,8.17
2018-12-08T05:27:31.382Z,2.47
2018-12-08T05:29:58.800Z,5.53
2018-12-08T05:32:26.254Z,16.03
2018-12-08T05:34:53.694Z,7.87
2018-12-08T05:37:21.086Z,7.47
2018-12-08T05:39:48.543Z,7.33
2018-12-08T05:42:15.971Z,10.77
2018-12-08T05:44:43.391Z,3.93
2018-12-08T05:47:10.830Z,7.57
2018-12-08T05:49:38.233Z,8.43
2018-12-08T05:52:05.601Z,7.70
2018-12-08T05:54:32.990Z,9.40
2018-12-08T05:57:00.379Z,12.83
2018-12-08T05:59:27.794Z,9.00
2018-12-08T06:01:55.182Z,10.50
2018-12-08T06:04:22.605Z,10.37
2018-12-08T06:06:50.029Z,15.60
2018-12-08T06:09:17.414Z,10.37
2018-12-08T06:11:44.802Z,12.57
2018-12-08T06:14:12.259Z,7.80
2018-12-08T06:16:39.633Z,5.67
2018-12-08T06:19:07.014Z,12.73
2018-12-08T06:21:38.068Z,10.23
2018-12-08T06:24:05.467Z,10.80
2018-12-08T06:26:42.347Z,16.17
2018-12-08T06:29:09.791Z,5.93
2018-12-08T06:31:37.175Z,11.53
2018-12-08T06:34:04.577Z,13.90
2018-12-08T06:36:31.971Z,5.80
2018-12-08T06:38:59.381Z,19.73
2018-12-08T06:41:26.825Z,10.97
2018-12-08T06:43:54.209Z,16.60
2018-12-08T06:46:21.627Z,13.30
2018-12-08T06:48:49.042Z,5.07
2018-12-08T06:51:16.449Z,9.83
2018-12-08T06:53:43.914Z,13.73
2018-12-08T06:56:12.150Z,11.40
2018-12-08T06:58:39.601Z,9.27
2018-12-08T07:01:07.010Z,12.50
2018-12-08T07:03:34.419Z,11.67
2018-12-08T07:06:01.939Z,15.00
2018-12-08T07:08:29.343Z,11.07
2018-12-08T07:10:56.988Z,9.77
2018-12-08T07:13:24.368Z,12.43
2018-12-08T07:15:51.799Z,14.20
2018-12-08T07:18:19.244Z,11.67
2018-12-08T07:20:46.657Z,5.77
2018-12-08T07:23:14.045Z,9.67
2018-12-08T07:25:41.538Z,12.57
2018-12-08T07:28:08.929Z,15.50
2018-12-08T07:30:36.326Z,10.73
2018-12-08T07:33:03.771Z,13.37
2018-12-08T07:35:31.185Z,10.23
2018-12-08T07:37:58.614Z,15.40
2018-12-08T07:40:26.058Z,9.60
2018-12-08T07:42:53.497Z,11.17
2018-12-08T07:45:20.919Z,11.50
2018-12-08T07:47:48.417Z,12.80
2018-12-08T07:50:15.829Z,12.00
2018-12-08T07:52:43.228Z,17.07
2018-12-08T07:55:10.669Z,15.67
2018-12-08T07:57:38.041Z,15.93
2018-12-08T08:00:08.007Z,12.63
2018-12-08T08:02:35.394Z,10.43
2018-12-08T08:05:02.956Z,16.83
2018-12-08T08:07:30.387Z,10.43
2018-12-08T08:09:57.827Z,15.60
2018-12-08T08:12:25.372Z,14.10
2018-12-08T08:14:52.830Z,17.80
2018-12-08T08:17:20.278Z,14.63
2018-12-08T08:19:47.663Z,14.57
2018-12-08T08:22:15.095Z,15.70
2018-12-08T08:24:42.498Z,10.27
2018-12-08T08:27:09.912Z,17.93
2018-12-08T08:29:37.371Z,14.43
2018-12-08T08:32:04.852Z,24.87
2018-12-08T08:34:32.536Z,19.90
2018-12-08T08:37:00.056Z,14.87
2018-12-08T08:39:27.487Z,13.83
2018-12-08T08:41:54.910Z,16.17
2018-12-08T08:44:22.502Z,16.47
2018-12-08T08:46:49.902Z,17.53
2018-12-08T08:49:17.407Z,15.33
2018-12-08T08:51:44.809Z,18.83
2018-12-08T08:54:12.338Z,15.27
2018-12-08T08:56:39.758Z,23.30
2018-12-08T08:59:07.385Z,19.23
2018-12-08T09:01:34.773Z,14.83
2018-12-08T09:04:02.406Z,12.87
2018-12-08T09:06:29.792Z,8.97
2018-12-08T09:08:57.271Z,25.93
2018-12-08T09:11:24.675Z,21.03
2018-12-08T09:13:52.134Z,15.23
2018-12-08T09:16:19.677Z,13.87
2018-12-08T09:18:47.119Z,15.33
2018-12-08T09:21:14.551Z,20.13
2018-12-08T09:23:41.986Z,15.20
2018-12-08T09:26:09.395Z,21.47
2018-12-08T09:28:36.911Z,13.80
2018-12-08T09:31:04.303Z,13.43
2018-12-08T09:33:31.723Z,12.37
2018-12-08T09:35:59.158Z,9.50
2018-12-08T09:38:26.588Z,8.83
2018-12-08T09:40:53.997Z,19.93
2018-12-08T09:43:21.475Z,12.60
2018-12-08T09:45:48.958Z,18.03
2018-12-08T09:48:16.359Z,31.50
2018-12-08T09:50:43.789Z,9.03
2018-12-08T09:53:12.527Z,10.67
2018-12-08T09:55:39.946Z,9.70
2018-12-08T09:58:07.380Z,16.23
2018-12-08T10:00:34.804Z,12.87
2018-12-08T10:03:02.239Z,20.20
2018-12-08T10:05:29.916Z,8.07
2018-12-08T10:07:57.358Z,7.50
2018-12-08T10:10:25.805Z,19.90
2018-12-08T10:12:53.267Z,9.00
2018-12-08T10:15:20.803Z,17.00
2018-12-08T10:17:48.322Z,10.33
2018-12-08T10:20:15.865Z,12.63
2018-12-08T10:22:43.298Z,16.73
2018-12-08T10:25:10.750Z,11.00
2018-12-08T10:27:38.188Z,17.80
2018-12-08T10:30:06.334Z,11.87
2018-12-08T10:32:33.850Z,12.27
2018-12-08T10:35:01.370Z,11.17
2018-12-08T10:37:28.845Z,13.07
2018-12-08T10:39:56.274Z,16.30
2018-12-08T10:42:23.672Z,6.77
2018-12-08T10:44:51.094Z,5.13
2018-12-08T10:47:18.567Z,11.20
2018-12-08T10:49:46.041Z,15.90
2018-12-08T10:52:13.639Z,15.83
2018-12-08T10:54:41.179Z,14.13
2018-12-08T10:57:08.568Z,18.83
2018-12-08T10:59:36.022Z,10.60
2018-12-08T11:02:03.682Z,21.13
2018-12-08T11:04:31.080Z,9.57
2018-12-08T11:06:58.531Z,8.53
2018-12-08T11:09:25.983Z,14.53
2018-12-08T11:11:53.445Z,13.27
2018-12-08T11:14:20.982Z,16.37
2018-12-08T11:16:48.428Z,11.77
2018-12-08T11:19:15.809Z,12.60
2018-12-08T11:21:43.263Z,11.70
2018-12-08T11:24:10.725Z,9.67
2018-12-08T11:26:38.309Z,11.83
2018-12-08T11:29:05.733Z,12.07
2018-12-08T11:31:33.131Z,13.10
2018-12-08T11:34:00.544Z,14.47
2018-12-08T11:36:27.987Z,9.13
2018-12-08T11:38:55.414Z,15.67
2018-12-08T11:41:22.837Z,15.90
2018-12-08T11:43:50.259Z,16.27
2018-12-08T11:46:17.647Z,14.43
2018-12-08T11:48:45.194Z,11.53
2018-12-08T11:51:12.602Z,11.93
2018-12-08T11:53:39.989Z,8.33
2018-12-08T11:56:07.407Z,9.83
2018-12-08T11:58:34.854Z,12.70
2018-12-08T12:01:02.222Z,11.00
2018-12-08T12:03:29.642Z,9.90
2018-12-08T12:05:57.084Z,6.57
2018-12-08T12:08:24.475Z,10.10
2018-12-08T12:10:51.881Z,16.83
2018-12-08T12:13:19.454Z,7.67
2018-12-08T12:15:46.934Z,10.20
2018-12-08T12:18:14.391Z,11.53
2018-12-08T12:20:41.811Z,10.97
2018-12-08T12:23:09.253Z,19.87
2018-12-08T12:25:36.775Z,10.40
2018-12-08T12:28:04.412Z,11.67
2018-12-08T12:30:32.020Z,13.10
2018-12-08T12:32:59.437Z,8.03
2018-12-08T12:35:26.840Z,13.63
2018-12-08T12:37:54.316Z,13.47
2018-12-08T12:40:21.765Z,14.97
2018-12-08T12:42:49.211Z,22.33
2018-12-08T12:45:16.649Z,13.80
2018-12-08T12:47:44.114Z,21.70
2018-12-08T12:50:11.711Z,14.80
2018-12-08T12:52:39.120Z,18.97
2018-12-08T12:55:06.763Z,18.07
2018-12-08T12:57:34.774Z,15.87
2018-12-08T13:00:02.421Z,22.50
2018-12-08T13:02:29.823Z,19.93
2018-12-08T13:04:57.356Z,19.63
2018-12-08T13:07:24.816Z,21.97
2018-12-08T13:09:52.234Z,17.87
2018-12-08T13:12:19.718Z,20.17
2018-12-08T13:14:47.135Z,14.33
2018-12-08T13:17:14.564Z,19.27
2018-12-08T13:19:42.019Z,27.63
2018-12-08T13:22:09.453Z,20.30
2018-12-08T13:24:36.869Z,21.80
2018-12-08T13:27:04.338Z,23.20
2018-12-08T13:29:31.790Z,21.17
2018-12-08T13:31:59.181Z,21.77
2018-12-08T13:34:27.459Z,29.50
2018-12-08T13:36:54.897Z,15.80
2018-12-08T13:39:22.402Z,18.33
2018-12-08T13:41:49.982Z,12.90
2018-12-08T13:44:22.907Z,20.40
2018-12-08T13:46:50.307Z,14.53
2018-12-08T13:49:17.821Z,25.73
2018-12-08T13:51:45.309Z,18.10
2018-12-08T13:54:17.299Z,21.23
2018-12-08T13:56:44.737Z,21.20
2018-12-08T13:59:12.192Z,24.20
2018-12-08T14:01:39.594Z,24.20
2018-12-08T14:04:06.990Z,23.53
2018-12-08T14:06:34.415Z,23.17
2018-12-08T14:09:01.880Z,37.17
2018-12-08T14:11:29.271Z,23.13
2018-12-08T14:13:56.745Z,19.40
2018-12-08T14:16:24.155Z,17.40
2018-12-08T14:18:51.586Z,19.60
2018-12-08T14:21:19.056Z,15.40
2018-12-08T14:23:46.456Z,23.27
2018-12-08T14:26:13.920Z,29.10
2018-12-08T14:28:41.567Z,21.87
2018-12-08T14:31:08.974Z,28.80
2018-12-08T14:33:36.425Z,22.37
2018-12-08T14:36:03.986Z,17.93
2018-12-08T14:38:31.416Z,26.70
2018-12-08T14:40:58.837Z,17.30
2018-12-08T14:43:26.244Z,23.83
2018-12-08T14:45:53.663Z,21.33
2018-12-08T14:48:21.073Z,13.90
2018-12-08T14:50:48.527Z,17.00
2018-12-08T14:53:15.986Z,19.50
2018-12-08T14:55:43.410Z,15.10
2018-12-08T14:58:10.849Z,20.47
2018-12-08T15:00:38.256Z,21.67
2018-12-08T15:03:05.716Z,24.03
2018-12-08T15:05:33.169Z,26.43
2018-12-08T15:08:00.606Z,23.90
2018-12-08T15:10:28.057Z,19.77
2018-12-08T15:12:55.511Z,18.83
2018-12-08T15:15:23.009Z,14.87
2018-12-08T15:17:50.431Z,6.40
2018-12-08T15:20:17.821Z,31.33
2018-12-08T15:22:45.311Z,21.47
2018-12-08T15:25:12.797Z,20.57
2018-12-08T15:27:40.294Z,16.77
2018-12-08T15:30:08.612Z,20.30
2018-12-08T15:32:36.088Z,10.77
2018-12-08T15:35:04.282Z,13.97
2018-12-08T15:37:31.831Z,18.87
2018-12-08T15:39:59.296Z,22.07
2018-12-08T15:42:26.720Z,16.77
2018-12-08T15:44:54.308Z,18.77
2018-12-08T15:47:21.762Z,22.50
2018-12-08T15:49:49.199Z,26.37
2018-12-08T15:52:16.709Z,15.17
2018-12-08T15:54:44.123Z,14.30
2018-12-08T15:57:11.547Z,16.50
2018-12-08T15:59:39.068Z,21.17
2018-12-08T16:02:06.590Z,12.27
2018-12-08T16:04:33.995Z,11.40
2018-12-08T16:07:01.440Z,12.97
2018-12-08T16:09:28.926Z,14.13
2018-12-08T16:11:56.369Z,13.47
2018-12-08T16:14:23.810Z,10.57
2018-12-08T16:16:51.270Z,17.43
2018-12-08T16:19:18.709Z,13.23
2018-12-08T16:21:46.116Z,7.53
2018-12-08T16:24:13.520Z,15.90
2018-12-08T16:26:41.112Z,4.53
2018-12-08T16:29:08.521Z,7.53
2018-12-08T16:31:35.962Z,6.90
2018-12-08T16:34:03.518Z,14.90
2018-12-08T16:36:30.935Z,17.23
2018-12-08T16:38:58.367Z,7.40
2018-12-08T16:41:25.833Z,4.23
2018-12-08T16:43:53.282Z,6.20
2018-12-08T16:46:20.806Z,4.33
2018-12-08T16:48:48.232Z,5.60
2018-12-08T16:51:15.658Z,5.40
2018-12-08T16:53:43.077Z,4.03
2018-12-08T16:56:10.481Z,5.80
2018-12-08T16:58:37.886Z,2.17
2018-12-08T17:01:05.466Z,2.40
2018-12-08T17:03:32.988Z,3.10
2018-12-08T17:06:00.486Z,2.50
2018-12-08T17:08:27.932Z,2.77
2018-12-08T17:10:55.393Z,2.40
2018-12-08T17:13:22.826Z,2.43
2018-12-08T17:15:50.221Z,3.97
2018-12-08T17:18:17.662Z,2.40
2018-12-08T17:20:45.106Z,2.07
2018-12-08T17:23:12.581Z,5.30
2018-12-08T17:25:39.989Z,3.30
2018-12-08T17:28:07.411Z,4.30
2018-12-08T17:30:34.952Z,1.10
2018-12-08T17:33:02.332Z,2.90
2018-12-08T17:35:29.847Z,1.93
2018-12-08T17:37:57.337Z,2.23
2018-12-08T17:40:24.871Z,3.40
2018-12-08T17:42:53.769Z,2.50
2018-12-08T17:45:22.018Z,2.60
2018-12-08T17:47:49.410Z,2.03
2018-12-08T17:50:19.572Z,3.73
2018-12-08T17:52:47.386Z,3.30
2018-12-08T17:55:14.785Z,1.43
2018-12-08T17:57:42.204Z,2.73
2018-12-08T18:00:10.512Z,4.37
2018-12-08T18:02:38.323Z,2.63
2018-12-08T18:05:06.700Z,4.27
2018-12-08T18:07:35.458Z,5.40
2018-12-08T18:10:03.468Z,3.87
2018-12-08T18:12:31.285Z,7.63
2018-12-08T18:14:59.535Z,3.97
2018-12-08T18:17:26.978Z,3.73
2018-12-08T18:19:54.396Z,4.63
2018-12-08T18:22:23.091Z,4.17
2018-12-08T18:24:51.267Z,4.87
2018-12-08T18:27:20.970Z,5.63
2018-12-08T18:29:49.416Z,5.10
2018-12-08T18:32:16.862Z,5.50
2018-12-08T18:34:44.807Z,1.50
2018-12-08T18:37:12.801Z,5.93
2018-12-08T18:39:40.812Z,5.80
2018-12-08T18:42:08.410Z,4.57
2018-12-08T18:44:36.521Z,3.93
2018-12-08T18:47:04.684Z,4.57
2018-12-08T18:49:32.526Z,3.67
2018-12-08T18:52:00.943Z,5.60
2018-12-08T18:54:29.215Z,3.23
2018-12-08T18:56:56.864Z,3.40
2018-12-08T18:59:24.723Z,2.40
2018-12-08T19:01:53.226Z,5.03
2018-12-08T19:04:21.099Z,3.37
2018-12-08T19:06:49.757Z,2.33
2018-12-08T19:09:17.220Z,2.70
2018-12-08T19:11:45.402Z,1.60
2018-12-08T19:14:14.977Z,2.30
2018-12-08T19:16:42.514Z,1.23
2018-12-08T19:19:10.493Z,2.80
2018-12-08T19:21:37.974Z,2.87
2018-12-08T19:24:05.719Z,2.60
2018-12-08T19:26:33.201Z,3.47
2018-12-08T19:29:00.765Z,4.00
2018-12-08T19:31:28.214Z,2.37
2018-12-08T19:33:55.735Z,3.70
2018-12-08T19:36:23.264Z,4.17
2018-12-08T19:38:50.703Z,3.10
2018-12-08T19:41:18.133Z,1.80
2018-12-08T19:43:45.569Z,3.37
2018-12-08T19:46:13.000Z,3.53
2018-12-08T19:48:40.426Z,1.63
2018-12-08T19:51:07.959Z,2.77
2018-12-08T19:53:35.338Z,7.00
2018-12-08T19:56:02.790Z,2.60
2018-12-08T19:58:30.302Z,3.37
2018-12-08T20:00:57.846Z,4.97
2018-12-08T20:03:25.349Z,4.23
2018-12-08T20:05:52.770Z,2.57
2018-12-08T20:08:20.229Z,5.63
2018-12-08T20:10:47.657Z,6.53
2018-12-08T20:13:15.112Z,4.27
2018-12-08T20:15:42.631Z,6.47
2018-12-08T20:18:10.148Z,5.13
2018-12-08T20:20:37.587Z,4.47
2018-12-08T20:23:05.036Z,6.77
2018-12-08T20:25:32.457Z,5.23
2018-12-08T20:27:59.856Z,5.10
2018-12-08T20:30:27.871Z,4.40
2018-12-08T20:32:58.033Z,9.87
2018-12-08T20:35:25.460Z,6.23
2018-12-08T20:37:53.070Z,10.13
2018-12-08T20:40:21.453Z,5.43
2018-12-08T20:42:50.071Z,8.53
2018-12-08T20:45:17.864Z,5.33
2018-12-08T20:47:45.243Z,7.37
2018-12-08T20:50:13.518Z,9.33
2018-12-08T20:52:41.485Z,10.90
2018-12-08T20:55:08.919Z,9.97
2018-12-08T21:00:11.897Z,13.30
2018-12-08T21:02:39.388Z,12.90
2018-12-08T21:05:06.860Z,9.07
2018-12-08T21:07:34.849Z,13.13
2018-12-08T21:10:02.712Z,8.13
2018-12-08T21:12:31.040Z,15.03
2018-12-08T21:14:58.464Z,11.53
2018-12-08T21:17:25.882Z,14.33
2018-12-08T21:19:53.389Z,12.33
2018-12-08T21:22:20.812Z,17.93
2018-12-08T21:24:48.235Z,13.13
2018-12-08T21:27:15.689Z,12.10
2018-12-08T21:29:43.128Z,12.60
2018-12-08T21:32:11.066Z,14.53
2018-12-08T21:34:38.588Z,4.13
2018-12-08T21:37:06.010Z,15.13
2018-12-08T21:39:33.441Z,14.73
2018-12-08T21:42:00.914Z,19.30
2018-12-08T21:44:28.324Z,15.17
2018-12-08T21:46:55.751Z,15.80
2018-12-08T21:49:23.246Z,7.53
2018-12-08T21:51:50.656Z,13.53
2018-12-08T21:54:18.085Z,21.53
2018-12-08T21:56:45.528Z,14.80
2018-12-08T21:59:12.982Z,19.10
2018-12-08T22:01:40.529Z,16.93
2018-12-08T22:04:07.953Z,14.20
2018-12-08T22:06:35.436Z,12.93
2018-12-08T22:09:04.349Z,14.70
2018-12-08T22:11:32.155Z,19.73
2018-12-08T22:13:59.604Z,13.33
2018-12-08T22:16:27.417Z,15.93
2018-12-08T22:18:59.043Z,13.13
2018-12-08T22:21:27.198Z,17.90
2018-12-08T22:23:55.657Z,12.50
2018-12-08T22:26:23.054Z,19.43
2018-12-08T22:28:50.514Z,13.83
2018-12-08T22:31:17.934Z,20.53
2018-12-08T22:33:45.403Z,10.93
2018-12-08T22:36:13.346Z,25.37
2018-12-08T22:38:41.427Z,19.60
2018-12-08T22:41:08.876Z,17.87
2018-12-08T22:43:36.348Z,15.30
2018-12-08T22:46:03.914Z,16.73
2018-12-08T22:48:31.354Z,20.60
2018-12-08T22:50:58.822Z,21.03
2018-12-08T22:53:26.243Z,22.40
2018-12-08T22:55:54.005Z,19.73
2018-12-08T22:58:21.670Z,12.93
2018-12-08T23:00:50.297Z,15.90
2018-12-08T23:03:17.738Z,18.27
2018-12-08T23:05:45.267Z,26.87
2018-12-08T23:08:12.700Z,12.30
2018-12-08T23:10:40.173Z,21.27
2018-12-08T23:13:07.563Z,11.60
2018-12-08T23:15:35.007Z,14.03
2018-12-08T23:18:02.413Z,21.67
2018-12-08T23:20:29.816Z,16.17
2018-12-08T23:22:57.202Z,26.83
2018-12-08T23:25:24.646Z,13.70
2018-12-08T23:27:52.071Z,11.87
2018-12-08T23:30:19.611Z,20.60
2018-12-08T23:32:47.043Z,21.20
2018-12-08T23:35:14.479Z,14.63
2018-12-08T23:37:42.098Z,15.70
2018-12-08T23:40:09.539Z,18.90
2018-12-08T23:42:36.997Z,16.67
2018-12-08T23:45:04.682Z,16.77
2018-12-08T23:47:32.099Z,19.27
2018-12-08T23:49:59.534Z,13.80
2018-12-08T23:52:26.945Z,22.73
2018-12-08T23:54:54.367Z,16.37
2018-12-08T23:57:21.775Z,16.70
2018-12-08T23:59:49.188Z,14.73
